createdAt,value
2022-11-25T00:07:12.154Z,9
2022-11-25T00:17:24.162Z,5
2022-11-25T00:27:22.837Z,5
2022-11-25T00:37:30.586Z,7
2022-11-25T00:47:36.821Z,4
2022-11-25T00:57:44.077Z,4
2022-11-25T01:07:47.633Z,4
2022-11-25T01:17:53.296Z,3
2022-11-25T01:27:58.839Z,4
2022-11-25T01:38:05.004Z,6
2022-11-25T01:48:09.474Z,5
2022-11-25T01:58:14.018Z,4
2022-11-25T02:08:19.878Z,6
2022-11-25T02:18:25.593Z,6
2022-11-25T02:28:30.263Z,7
2022-11-25T02:38:37.978Z,6
2022-11-25T02:49:10.108Z,6
2022-11-25T02:59:03.756Z,7
2022-11-25T03:09:09.093Z,5
2022-11-25T03:19:16.408Z,6
2022-11-25T03:29:22.713Z,5
2022-11-25T03:39:27.773Z,4
2022-11-25T03:49:34.216Z,4
2022-11-25T03:59:40.323Z,3
2022-11-25T04:09:44.840Z,3
2022-11-25T04:19:52.073Z,5
2022-11-25T04:29:59.748Z,3
2022-11-25T04:40:05.751Z,4
2022-11-25T04:50:13.657Z,5
2022-11-25T05:00:22.376Z,8
2022-11-25T05:10:29.693Z,8
2022-11-25T05:20:35.377Z,6
2022-11-25T05:30:43.816Z,4
2022-11-25T05:40:46.653Z,9
2022-11-25T05:50:51.564Z,5
2022-11-25T06:01:02.869Z,5
2022-11-25T06:11:03.541Z,6
2022-11-25T06:21:09.035Z,4
2022-11-25T06:31:13.752Z,5
2022-11-25T06:41:21.120Z,5
2022-11-25T06:51:25.517Z,5
2022-11-25T07:01:31.273Z,5
2022-11-25T07:11:35.807Z,3
2022-11-25T07:21:42.333Z,4
2022-11-25T07:32:47.354Z,5
2022-11-25T07:42:48.243Z,7
2022-11-25T07:52:53.715Z,4
2022-11-25T08:03:01.751Z,3
2022-11-25T08:13:08.440Z,6
2022-11-25T08:23:15.897Z,5
2022-11-25T08:33:20.751Z,3
2022-11-25T08:43:29.935Z,3
2022-11-25T08:53:31.284Z,3
2022-11-25T09:03:36.525Z,3
2022-11-25T09:13:40.931Z,4
2022-11-25T09:23:45.875Z,3
2022-11-25T09:33:51.302Z,3
2022-11-25T09:43:56.695Z,4
2022-11-25T09:54:01.739Z,5
2022-11-25T10:04:08.216Z,6
2022-11-25T10:14:12.914Z,5
2022-11-25T10:24:19.332Z,4
2022-11-25T10:34:24.933Z,5
2022-11-25T10:44:30.708Z,3
2022-11-25T10:54:36.656Z,5
2022-11-25T11:04:44.454Z,6
2022-11-25T11:14:49.192Z,3
2022-11-25T11:24:55.856Z,5
2022-11-25T11:34:59.980Z,8
2022-11-25T11:45:06.173Z,7
2022-11-25T11:55:12.704Z,6
2022-11-25T12:05:15.334Z,8
2022-11-25T12:15:21.048Z,5
2022-11-25T12:25:28.019Z,6
2022-11-25T12:35:34.368Z,4
2022-11-25T12:45:41.217Z,4
2022-11-25T12:55:46.005Z,5
2022-11-25T13:06:22.897Z,10
2022-11-25T13:16:21.447Z,3
2022-11-25T13:26:22.322Z,4
2022-11-25T13:36:29.073Z,4
2022-11-25T13:46:36.773Z,7
2022-11-25T13:56:39.279Z,5
2022-11-25T14:06:45.156Z,6
2022-11-25T14:16:54.812Z,5
2022-11-25T14:27:35.311Z,8
2022-11-25T14:37:28.220Z,5
2022-11-25T14:47:39.294Z,7
2022-11-25T14:57:41.879Z,13
2022-11-25T15:07:46.544Z,15
2022-11-25T15:17:53.157Z,7
2022-11-25T15:27:58.159Z,16
2022-11-25T15:38:04.769Z,17
2022-11-25T15:48:10.324Z,19
2022-11-25T15:58:17.835Z,13
2022-11-25T16:08:24.639Z,13
2022-11-25T16:19:03.940Z,9
2022-11-25T16:28:58.091Z,9
2022-11-25T16:39:01.805Z,11
2022-11-25T16:49:07.585Z,9
2022-11-25T16:59:13.219Z,7
2022-11-25T17:09:20.932Z,8
2022-11-25T17:19:28.732Z,6
2022-11-25T17:29:33.186Z,7
2022-11-25T17:39:40.265Z,6
2022-11-25T17:49:46.370Z,5
2022-11-25T17:59:51.559Z,4
2022-11-25T18:09:57.386Z,6
2022-11-25T18:20:02.698Z,6
2022-11-25T18:30:08.690Z,4
2022-11-25T18:40:13.602Z,6
2022-11-25T18:50:26.288Z,4
2022-11-25T19:01:03.230Z,4
2022-11-25T19:11:01.844Z,4
2022-11-25T19:21:02.092Z,5
2022-11-25T19:31:06.502Z,5
2022-11-25T19:41:20.797Z,8
2022-11-25T19:51:18.668Z,5
2022-11-25T20:01:24.551Z,10
2022-11-25T20:11:30.440Z,11
2022-11-25T20:21:35.689Z,7
2022-11-25T20:31:41.092Z,6
2022-11-25T20:41:46.655Z,7
2022-11-25T20:51:52.530Z,7
2022-11-25T21:01:57.549Z,11
2022-11-25T21:12:01.264Z,11
2022-11-25T21:22:08.185Z,13
2022-11-25T21:32:15.213Z,12
2022-11-25T21:42:19.775Z,11
2022-11-25T21:52:25.085Z,12
2022-11-25T22:02:30.165Z,18
2022-11-25T22:12:41.777Z,12
2022-11-25T22:22:42.810Z,11
2022-11-25T22:32:54.431Z,12
2022-11-25T22:42:52.924Z,12
2022-11-25T22:53:01.739Z,7
2022-11-25T23:03:07.972Z,8
2022-11-25T23:13:13.829Z,10
2022-11-25T23:23:19.621Z,8
2022-11-25T23:33:26.131Z,8
2022-11-25T23:43:32.978Z,7
2022-11-25T23:53:37.178Z,9
